Time;durP1;ratioP1;P1;durP2;ratioP2;P2;SDS_P1;SDS_P2;PMS_P1;PMS_P2;Temp;Humidity;BMP_temperature;BMP_pressure;BME280_temperature;BME280_humidity;BME280_pressure;Samples;Min_cycle;Max_cycle;Signal;HPM_P1;HPM_P2
2022/05/13 00:01:14;;;;;;;;;;;;;;;11.70;79.33;100025.06;5051544;28;1890;-55
2022/05/13 00:03:40;;;;;;;;;;;;;;;11.53;79.24;100024.75;5051924;28;822;-55
2022/05/13 00:06:07;;;;;;;;;;;;;;;11.39;79.37;100022.06;5051540;28;854;-55
2022/05/13 00:08:34;;;;;;;;;;;;;;;11.23;79.60;100012.25;5051478;28;850;-55
2022/05/13 00:11:02;;;;;;;;;;;;;;;11.08;80.29;100012.72;5051667;28;830;-55
2022/05/13 00:13:29;;;;;;;;;;;;;;;11.03;80.88;100022.19;5051392;28;873;-55
2022/05/13 00:15:56;;;;;;;;;;;;;;;11.02;81.74;100015.09;5051458;28;821;-55
2022/05/13 00:18:23;;;;;;;;;;;;;;;11.11;82.02;100007.16;5051369;28;911;-55
2022/05/13 00:20:49;;;;;;;;;;;;;;;11.08;82.46;99999.66;5051411;28;799;-55
2022/05/13 00:23:15;;;;;;;;;;;;;;;11.13;82.17;99996.47;5051301;28;1945;-55
2022/05/13 00:25:42;;;;;;;;;;;;;;;11.07;82.14;99991.75;5051432;28;982;-55
2022/05/13 00:28:09;;;;;;;;;;;;;;;11.07;81.82;100000.84;5051149;28;1343;-55
2022/05/13 00:30:38;;;;;;;;;;;;;;;10.99;81.57;100008.38;5051277;28;897;-55
2022/05/13 00:33:06;;;;;;;;;;;;;;;10.98;81.63;100006.78;5051266;28;799;-55
2022/05/13 00:35:33;;;;;;;;;;;;;;;10.91;81.45;100003.28;5051572;28;840;-55
2022/05/13 00:38:00;;;;;;;;;;;;;;;10.73;82.00;100006.06;5051553;28;788;-55
2022/05/13 00:40:27;;;;;;;;;;;;;;;10.58;82.02;100006.13;5051960;28;755;-55
2022/05/13 00:43:04;;;;;;;;;;;;;;;10.42;83.01;100009.28;5051349;28;1955;-54
2022/05/13 00:45:31;;;;;;;;;;;;;;;10.36;83.78;100018.38;5051230;28;893;-55
2022/05/13 00:47:59;;;;;;;;;;;;;;;10.66;83.98;100006.09;5051316;28;886;-55
2022/05/13 00:50:27;;;;;;;;;;;;;;;10.96;82.99;100014.72;5051206;28;838;-55
2022/05/13 00:52:53;;;;;;;;;;;;;;;11.01;81.83;100010.75;5051157;28;842;-54
2022/05/13 00:55:27;;;;;;;;;;;;;;;10.95;82.37;100010.38;5051074;28;885;-56
2022/05/13 00:57:54;;;;;;;;;;;;;;;10.79;82.03;100015.56;5051061;28;818;-54
2022/05/13 01:00:21;;;;;;;;;;;;;;;10.60;82.58;100014.00;5051038;28;897;-55
2022/05/13 01:02:48;;;;;;;;;;;;;;;10.40;83.05;100014.44;5050947;28;1886;-56
2022/05/13 01:05:16;;;;;;;;;;;;;;;10.36;84.13;100016.41;5050930;28;902;-56
2022/05/13 01:07:43;;;;;;;;;;;;;;;10.48;84.02;100026.28;5050951;28;861;-56
2022/05/13 01:10:15;;;;;;;;;;;;;;;10.59;83.38;100017.97;5050983;28;811;-55
2022/05/13 01:12:44;;;;;;;;;;;;;;;10.70;83.06;100026.25;5053956;28;838;-56
2022/05/13 01:15:16;;;;;;;;;;;;;;;10.77;82.82;100023.44;5054720;28;1072;-56
2022/05/13 01:20:32;;;;;;;;;;;;;;;11.09;81.36;100011.50;5054649;28;629;-55
2022/05/13 01:23:00;;;;;;;;;;;;;;;11.14;81.03;100009.13;5054486;28;1941;-55
2022/05/13 01:25:27;;;;;;;;;;;;;;;11.11;80.60;100004.38;5054650;28;887;-55
2022/05/13 01:27:55;;;;;;;;;;;;;;;11.09;80.48;100011.50;5054279;28;1273;-56
2022/05/13 01:30:23;;;;;;;;;;;;;;;11.05;80.41;99994.91;5054544;28;818;-56
2022/05/13 01:32:50;;;;;;;;;;;;;;;11.03;80.38;100003.63;5054375;28;838;-56
2022/05/13 01:35:17;;;;;;;;;;;;;;;10.96;80.66;100003.66;5054399;28;841;-56
2022/05/13 01:37:44;;;;;;;;;;;;;;;10.90;80.76;100001.69;5054219;28;917;-56
2022/05/13 01:40:11;;;;;;;;;;;;;;;10.75;80.82;100003.72;5054022;28;925;-55
2022/05/13 01:42:38;;;;;;;;;;;;;;;10.59;81.29;99996.63;5054419;28;1934;-55
2022/05/13 01:45:06;;;;;;;;;;;;;;;10.42;81.84;99994.69;5054063;28;831;-55
2022/05/13 01:47:33;;;;;;;;;;;;;;;10.39;82.63;99999.03;5054005;28;917;-55
2022/05/13 01:49:59;;;;;;;;;;;;;;;10.51;82.33;99994.28;5054022;28;854;-55
2022/05/13 01:52:26;;;;;;;;;;;;;;;10.52;82.35;99987.56;5054003;28;1042;-56
2022/05/13 01:54:53;;;;;;;;;;;;;;;10.52;82.37;99993.09;5054218;28;852;-55
2022/05/13 01:57:20;;;;;;;;;;;;;;;10.52;82.70;99993.09;5053918;28;1140;-56
2022/05/13 01:59:46;;;;;;;;;;;;;;;10.53;82.52;99995.47;5053721;28;907;-55
2022/05/13 02:02:13;;;;;;;;;;;;;;;10.55;82.86;99995.06;5035865;28;1890;-56
2022/05/13 02:04:40;;;;;;;;;;;;;;;10.55;82.23;99995.06;5053649;28;913;-55
2022/05/13 02:07:05;;;;;;;;;;;;;;;10.37;82.44;99992.31;5053754;28;886;-55
2022/05/13 02:09:32;;;;;;;;;;;;;;;10.23;83.07;99993.09;5053901;28;822;-55
2022/05/13 02:11:58;;;;;;;;;;;;;;;10.13;83.79;99989.16;5053613;28;795;-55
2022/05/13 02:14:25;;;;;;;;;;;;;;;10.13;84.95;99989.16;5053658;28;830;-54
2022/05/13 02:16:51;;;;;;;;;;;;;;;10.04;84.34;99983.22;5053575;28;819;-55
2022/05/13 02:19:18;;;;;;;;;;;;;;;10.02;85.45;99985.59;5053517;28;866;-54
2022/05/13 02:21:44;;;;;;;;;;;;;;;10.00;85.23;99985.97;5053436;28;1890;-55
2022/05/13 02:24:11;;;;;;;;;;;;;;;9.94;85.51;99984.81;5053407;28;920;-55
2022/05/13 02:26:38;;;;;;;;;;;;;;;9.88;85.74;99991.09;5035319;28;1468;-54
2022/05/13 02:29:04;;;;;;;;;;;;;;;9.87;85.69;99986.78;5035499;28;1243;-56
2022/05/13 02:31:31;;;;;;;;;;;;;;;9.78;85.93;99990.72;5053201;28;857;-55
2022/05/13 02:33:58;;;;;;;;;;;;;;;9.73;86.21;99990.31;5053275;28;838;-55
2022/05/13 02:36:25;;;;;;;;;;;;;;;9.57;86.38;99996.97;5035252;28;1613;-54
2022/05/13 02:38:53;;;;;;;;;;;;;;;9.45;86.63;100002.84;5052953;28;890;-54
2022/05/13 02:41:20;;;;;;;;;;;;;;;9.37;87.01;100018.63;5052952;28;1971;-55
2022/05/13 02:43:50;;;;;;;;;;;;;;;9.30;87.05;100035.16;5052935;28;946;-56
2022/05/13 02:46:18;;;;;;;;;;;;;;;9.18;87.87;100030.75;5052983;28;1100;-57
2022/05/13 02:48:44;;;;;;;;;;;;;;;9.13;89.43;100033.91;5035196;28;889;-56
2022/05/13 02:51:12;;;;;;;;;;;;;;;9.18;89.55;100029.97;5052932;28;873;-56
2022/05/13 02:53:39;;;;;;;;;;;;;;;9.27;89.51;100032.38;5052857;28;853;-56
2022/05/13 02:56:07;;;;;;;;;;;;;;;9.38;89.10;100030.44;5052704;28;910;-55
2022/05/13 02:58:34;;;;;;;;;;;;;;;9.52;88.54;100033.25;5052572;28;934;-54
2022/05/13 03:01:02;;;;;;;;;;;;;;;9.71;88.11;100042.38;5052768;28;870;-56
2022/05/13 03:03:30;;;;;;;;;;;;;;;9.91;87.11;100037.28;5052597;28;1937;-56
2022/05/13 03:05:57;;;;;;;;;;;;;;;10.12;86.19;100040.06;5052502;28;903;-56
2022/05/13 03:08:23;;;;;;;;;;;;;;;10.28;85.10;100036.88;5052510;28;810;-56
2022/05/13 03:10:50;;;;;;;;;;;;;;;10.39;84.65;100039.69;5052463;28;924;-56
2022/05/13 03:13:18;;;;;;;;;;;;;;;10.51;84.26;100028.22;5052526;28;835;-56
2022/05/13 03:15:45;;;;;;;;;;;;;;;10.48;83.95;100023.50;5052508;28;858;-56
2022/05/13 03:18:12;;;;;;;;;;;;;;;10.37;84.34;100028.22;5052422;28;885;-54
2022/05/13 03:20:38;;;;;;;;;;;;;;;10.20;84.49;100019.53;5052256;28;922;-55
2022/05/13 03:23:05;;;;;;;;;;;;;;;10.09;85.39;100020.72;5052240;28;2026;-55
2022/05/13 03:25:31;;;;;;;;;;;;;;;10.07;85.68;100020.31;5052338;28;907;-55
2022/05/13 03:27:58;;;;;;;;;;;;;;;9.98;85.94;100015.97;5052168;28;1338;-54
2022/05/13 03:30:24;;;;;;;;;;;;;;;9.92;86.17;100014.81;5052248;28;893;-55
2022/05/13 03:32:52;;;;;;;;;;;;;;;9.89;86.22;100020.31;5052238;28;869;-56
2022/05/13 03:35:19;;;;;;;;;;;;;;;9.86;86.46;100029.34;5051789;28;1149;-56
2022/05/13 03:37:46;;;;;;;;;;;;;;;9.91;86.60;100029.00;5052040;28;786;-56
2022/05/13 03:40:14;;;;;;;;;;;;;;;9.97;86.59;100025.44;5051902;28;834;-56
2022/05/13 03:42:41;;;;;;;;;;;;;;;10.06;86.31;100022.28;5051920;28;1910;-55
2022/05/13 03:45:10;;;;;;;;;;;;;;;10.22;85.84;100024.69;5051803;28;890;-55
2022/05/13 03:47:37;;;;;;;;;;;;;;;10.39;85.74;100028.63;5051797;28;973;-55
2022/05/13 03:50:04;;;;;;;;;;;;;;;10.56;85.46;100036.13;5051734;28;842;-56
2022/05/13 03:52:31;;;;;;;;;;;;;;;10.72;84.89;100044.00;5052109;28;767;-56
2022/05/13 03:54:58;;;;;;;;;;;;;;;10.90;84.28;100043.16;5051766;28;811;-56
2022/05/13 03:57:25;;;;;;;;;;;;;;;11.06;83.96;100039.97;5051738;28;870;-56
2022/05/13 03:59:53;;;;;;;;;;;;;;;11.27;83.46;100047.44;5051596;28;933;-56
2022/05/13 04:02:20;;;;;;;;;;;;;;;11.46;82.73;100049.72;5051487;28;1882;-56
2022/05/13 04:10:16;;;;;;;;;;;;;;;12.28;80.22;100067.03;5051901;28;686;-55
2022/05/13 04:18:13;;;;;;;;;;;;;;;12.74;75.80;100074.97;5051832;28;597;-56
2022/05/13 04:20:59;;;;;;;;;;;;;;;12.88;75.06;100072.03;5033589;28;859;-57
2022/05/13 04:23:25;;;;;;;;;;;;;;;13.07;74.70;100067.09;5033706;28;1885;-56
2022/05/13 04:25:52;;;;;;;;;;;;;;;13.25;74.28;100076.03;5051812;28;903;-56
2022/05/13 04:28:19;;;;;;;;;;;;;;;13.46;73.85;100077.78;5051440;28;1220;-56
2022/05/13 04:30:46;;;;;;;;;;;;;;;13.67;72.78;100079.50;5051808;28;822;-57
2022/05/13 04:33:13;;;;;;;;;;;;;;;13.83;70.66;100070.56;5051653;28;887;-56
2022/05/13 04:35:40;;;;;;;;;;;;;;;13.96;70.64;100062.44;5051783;28;787;-55
2022/05/13 04:38:07;;;;;;;;;;;;;;;14.08;71.12;100064.66;5051311;28;972;-57
2022/05/13 04:40:34;;;;;;;;;;;;;;;14.21;70.60;100061.25;5051794;28;830;-56
2022/05/13 04:43:00;;;;;;;;;;;;;;;14.29;69.83;100062.72;5051657;28;1910;-57
2022/05/13 04:45:29;;;;;;;;;;;;;;;14.37;69.36;100066.97;5051357;28;823;-56
2022/05/13 04:48:15;;;;;;;;;;;;;;;14.49;69.56;100071.16;5055206;28;865;-57
2022/05/13 04:50:59;;;;;;;;;;;;;;;14.83;68.00;100075.75;5037295;28;2575;-56
2022/05/13 04:53:29;;;;;;;;;;;;;;;14.93;66.49;100077.56;5055038;28;854;-57
2022/05/13 04:55:56;;;;;;;;;;;;;;;14.89;66.90;100074.06;5054952;28;941;-56
2022/05/13 04:58:23;;;;;;;;;;;;;;;14.92;66.87;100072.44;5055060;28;858;-56
2022/05/13 05:00:51;;;;;;;;;;;;;;;14.95;66.44;100071.56;5054976;28;854;-56
2022/05/13 05:03:18;;;;;;;;;;;;;;;15.03;66.26;100075.81;5055132;28;1971;-56
2022/05/13 05:05:46;;;;;;;;;;;;;;;15.20;66.05;100083.03;5055588;28;767;-56
2022/05/13 05:08:13;;;;;;;;;;;;;;;15.43;65.52;100084.19;5055275;28;897;-56
2022/05/13 05:10:41;;;;;;;;;;;;;;;15.67;65.28;100079.28;5055151;28;858;-55
2022/05/13 05:13:08;;;;;;;;;;;;;;;15.89;65.05;100082.41;5055274;28;870;-56
2022/05/13 05:15:36;;;;;;;;;;;;;;;16.05;63.66;100082.47;5055031;28;822;-56
2022/05/13 05:18:03;;;;;;;;;;;;;;;16.36;63.02;100087.72;5054609;28;808;-56
2022/05/13 05:20:30;;;;;;;;;;;;;;;16.81;62.46;100094.59;5054527;28;860;-57
2022/05/13 05:22:57;;;;;;;;;;;;;;;17.39;61.42;100091.84;5054602;28;1949;-56
2022/05/13 05:25:28;;;;;;;;;;;;;;;17.85;60.37;100088.94;5054473;28;914;-56
2022/05/13 05:27:56;;;;;;;;;;;;;;;18.06;58.38;100088.28;5054340;28;1246;-56
2022/05/13 05:30:23;;;;;;;;;;;;;;;18.30;56.34;100088.72;5054341;28;922;-56
2022/05/13 05:32:50;;;;;;;;;;;;;;;18.85;54.93;100080.16;5054584;28;842;-56
2022/05/13 05:35:18;;;;;;;;;;;;;;;20.31;52.38;100086.34;5054295;28;953;-56
2022/05/13 05:37:46;;;;;;;;;;;;;;;21.94;47.19;100085.28;5054195;28;807;-57
2022/05/13 05:40:13;;;;;;;;;;;;;;;23.15;44.78;100074.13;5054219;28;897;-56
2022/05/13 05:42:40;;;;;;;;;;;;;;;24.05;42.62;100079.31;5054156;28;1913;-57
2022/05/13 05:45:08;;;;;;;;;;;;;;;24.59;40.17;100076.25;5054191;28;842;-57
2022/05/13 05:47:35;;;;;;;;;;;;;;;25.16;39.47;100079.78;5054096;28;1096;-56
2022/05/13 05:50:04;;;;;;;;;;;;;;;25.66;38.55;100071.03;5036191;28;1333;-56
2022/05/13 05:52:31;;;;;;;;;;;;;;;26.54;37.29;100082.75;5053927;28;930;-57
2022/05/13 05:58:02;;;;;;;;;;;;;;;27.25;35.71;100080.00;5053898;28;620;-56
2022/05/13 06:00:30;;;;;;;;;;;;;;;27.59;35.66;100085.72;5043208;28;2145;-56
2022/05/13 06:02:57;;;;;;;;;;;;;;;27.73;35.07;100074.63;5053810;28;1886;-57
2022/05/13 06:05:25;;;;;;;;;;;;;;;27.86;35.42;100072.06;5053611;28;896;-57
2022/05/13 06:07:54;;;;;;;;;;;;;;;28.57;35.03;100071.72;5053790;28;838;-57
2022/05/13 06:10:21;;;;;;;;;;;;;;;28.90;33.40;100064.34;5053886;28;795;-57
2022/05/13 06:12:48;;;;;;;;;;;;;;;28.48;34.22;100072.75;5053666;28;857;-57
2022/05/13 06:15:14;;;;;;;;;;;;;;;28.62;33.93;100075.84;5053617;28;811;-56
2022/05/13 06:17:45;;;;;;;;;;;;;;;28.87;33.10;100073.94;5053539;28;827;-55
2022/05/13 06:20:12;;;;;;;;;;;;;;;29.29;33.28;100074.75;5053500;28;802;-57
2022/05/13 06:22:39;;;;;;;;;;;;;;;29.64;32.89;100067.53;5053707;28;1886;-57
2022/05/13 06:25:07;;;;;;;;;;;;;;;29.73;32.53;100060.75;5053318;28;1002;-56
2022/05/13 06:27:33;;;;;;;;;;;;;;;29.94;32.29;100070.41;5053117;28;1236;-57
2022/05/13 06:30:00;;;;;;;;;;;;;;;30.13;32.41;100057.03;5053264;28;799;-57
2022/05/13 06:32:27;;;;;;;;;;;;;;;30.08;32.54;100057.81;5053235;28;877;-56
2022/05/13 06:34:53;;;;;;;;;;;;;;;29.90;32.00;100056.44;5053378;28;794;-57
2022/05/13 06:37:20;;;;;;;;;;;;;;;30.04;31.83;100056.59;5053195;28;822;-57
2022/05/13 06:39:47;;;;;;;;;;;;;;;30.32;31.09;100059.97;5053088;28;862;-56
2022/05/13 06:42:16;;;;;;;;;;;;;;;30.05;31.61;100058.91;5053141;28;1914;-56
2022/05/13 06:44:43;;;;;;;;;;;;;;;30.01;31.65;100054.81;5052896;28;886;-56
2022/05/13 06:47:10;;;;;;;;;;;;;;;29.83;32.03;100065.59;5052979;28;1067;-56
2022/05/13 06:49:37;;;;;;;;;;;;;;;30.17;31.23;100062.44;5052942;28;826;-57
2022/05/13 06:52:04;;;;;;;;;;;;;;;30.26;31.03;100064.16;5052936;28;803;-56
2022/05/13 06:54:31;;;;;;;;;;;;;;;30.07;30.64;100059.16;5052900;28;905;-56
2022/05/13 06:56:58;;;;;;;;;;;;;;;30.20;30.32;100067.06;5052867;28;791;-56
2022/05/13 06:59:25;;;;;;;;;;;;;;;30.13;30.50;100073.34;5052797;28;822;-57
2022/05/13 07:01:52;;;;;;;;;;;;;;;30.20;30.54;100078.44;5052663;28;1945;-56
2022/05/13 07:04:19;;;;;;;;;;;;;;;30.23;30.90;100074.53;5052635;28;861;-56
2022/05/13 07:06:46;;;;;;;;;;;;;;;30.37;29.79;100071.84;5052499;28;897;-55
2022/05/13 07:09:13;;;;;;;;;;;;;;;30.23;30.23;100071.66;5051882;28;873;-55
2022/05/13 07:11:40;;;;;;;;;;;;;;;30.51;30.36;100074.28;5052560;28;854;-56
2022/05/13 07:14:07;;;;;;;;;;;;;;;30.81;29.77;100059.13;5052472;28;995;-57
2022/05/13 07:16:34;;;;;;;;;;;;;;;31.08;29.80;100059.31;5052381;28;850;-57
2022/05/13 07:19:01;;;;;;;;;;;;;;;31.62;29.21;100063.19;5052461;28;818;-57
2022/05/13 07:21:28;;;;;;;;;;;;;;;32.21;29.10;100061.16;5052441;28;1910;-56
2022/05/13 07:23:55;;;;;;;;;;;;;;;32.24;27.70;100068.66;5052315;28;1053;-56
2022/05/13 07:26:22;;;;;;;;;;;;;;;31.93;27.82;100064.50;5052248;28;1179;-56
2022/05/13 07:28:49;;;;;;;;;;;;;;;31.85;27.30;100049.31;5052176;28;941;-56
2022/05/13 07:31:15;;;;;;;;;;;;;;;31.27;28.28;100051.50;5034258;28;1520;-57
2022/05/13 07:33:42;;;;;;;;;;;;;;;30.88;29.31;100052.06;5052095;28;799;-57
2022/05/13 07:36:09;;;;;;;;;;;;;;;31.06;29.46;100051.28;5052093;28;913;-56
2022/05/13 07:41:16;;;;;;;;;;;;;;;30.96;29.18;100052.19;5052076;28;881;-55
2022/05/13 07:41:25;;;;;;;;;;;;;;;30.92;29.55;100052.53;5051719;28;1902;-56
2022/05/13 07:43:52;;;;;;;;;;;;;;;31.24;29.54;100051.81;5051840;28;913;-56
2022/05/13 07:46:19;;;;;;;;;;;;;;;31.57;29.54;100053.41;5051798;28;950;-55
2022/05/13 07:48:46;;;;;;;;;;;;;;;31.60;29.28;100055.19;5051850;28;871;-56
2022/05/13 07:51:13;;;;;;;;;;;;;;;31.73;29.12;100046.66;5051971;28;862;-56
2022/05/13 07:53:40;;;;;;;;;;;;;;;31.90;27.85;100040.63;5051782;28;913;-56
2022/05/13 07:56:08;;;;;;;;;;;;;;;31.91;28.24;100047.13;5051732;28;799;-56
2022/05/13 07:58:35;;;;;;;;;;;;;;;31.69;28.20;100051.16;5051592;28;874;-56
2022/05/13 08:01:01;;;;;;;;;;;;;;;31.63;28.31;100048.38;5051634;28;854;-56
2022/05/13 08:03:30;;;;;;;;;;;;;;;31.73;28.20;100045.88;5033731;28;1894;-56
2022/05/13 08:06:02;;;;;;;;;;;;;;;31.86;28.32;100048.75;5051829;28;902;-55
2022/05/13 08:08:31;;;;;;;;;;;;;;;32.07;27.39;100045.28;5051564;28;954;-56
2022/05/13 08:11:01;;;;;;;;;;;;;;;32.41;28.24;100034.00;5051510;28;938;-56
2022/05/13 08:13:31;;;;;;;;;;;;;;;32.05;26.46;100036.50;5033634;28;873;-56
2022/05/13 08:15:58;;;;;;;;;;;;;;;31.62;27.70;100040.34;5051348;28;852;-55
2022/05/13 08:18:25;;;;;;;;;;;;;;;31.68;29.12;100032.44;5051482;28;854;-56
2022/05/13 08:20:52;;;;;;;;;;;;;;;31.85;28.75;100030.06;5051321;28;858;-56
2022/05/13 08:23:20;;;;;;;;;;;;;;;31.78;27.61;100027.88;5051310;28;1890;-55
2022/05/13 08:25:47;;;;;;;;;;;;;;;31.72;27.55;100036.53;5051521;28;1085;-56
2022/05/13 08:28:15;;;;;;;;;;;;;;;31.54;27.52;100034.50;5051177;28;1251;-56
2022/05/13 08:30:42;;;;;;;;;;;;;;;31.48;30.01;100040.31;5051404;28;807;-54
2022/05/13 08:33:10;;;;;;;;;;;;;;;31.77;28.88;100032.03;5051231;28;877;-56
2022/05/13 08:35:42;;;;;;;;;;;;;;;32.28;28.38;100020.44;5051253;28;894;-56
2022/05/13 08:38:11;;;;;;;;;;;;;;;32.17;26.98;100023.53;5033646;28;1337;-56
2022/05/13 08:40:41;;;;;;;;;;;;;;;31.97;27.44;100024.94;5051303;28;827;-56
2022/05/13 08:43:13;;;;;;;;;;;;;;;31.82;28.68;100021.84;5051365;28;1985;-56
2022/05/13 08:45:44;;;;;;;;;;;;;;;31.39;27.44;100015.00;5051189;28;1281;-56
2022/05/13 08:48:14;;;;;;;;;;;;;;;31.22;28.83;100015.25;5051178;28;818;-55
2022/05/13 08:51:03;;;;;;;;;;;;;;;30.88;28.52;100006.41;5051124;28;889;-56
2022/05/13 08:53:38;;;;;;;;;;;;;;;30.87;28.05;100004.84;5051390;28;810;-56
2022/05/13 08:56:09;;;;;;;;;;;;;;;31.12;29.00;100012.00;5051437;28;818;-54
2022/05/13 08:58:42;;;;;;;;;;;;;;;30.95;27.48;100002.94;5051017;28;870;-57
2022/05/13 09:01:13;;;;;;;;;;;;;;;30.89;27.92;100005.09;5051119;28;897;-55
2022/05/13 09:03:42;;;;;;;;;;;;;;;30.89;27.47;100003.00;5050820;28;1983;-56
2022/05/13 09:06:24;;;;;;;;;;;;;;;31.18;28.92;100003.38;5050957;28;933;-56
2022/05/13 09:08:52;;;;;;;;;;;;;;;31.36;26.75;99993.22;5051004;28;846;-55
2022/05/13 09:11:22;;;;;;;;;;;;;;;31.05;28.01;99991.91;5050992;28;822;-55
2022/05/13 09:13:55;;;;;;;;;;;;;;;30.80;28.50;99996.91;5050820;28;973;-55
2022/05/13 09:16:39;;;;;;;;;;;;;;;30.56;27.21;99987.09;5051754;28;818;-55
2022/05/13 09:19:10;;;;;;;;;;;;;;;30.65;27.96;99989.56;5050956;28;802;-55
2022/05/13 09:21:41;;;;;;;;;;;;;;;30.77;27.95;99980.84;5051023;28;1890;-56
2022/05/13 09:24:06;;;;;;;;;;;;;;;30.88;30.04;99978.66;5050847;28;853;-56
2022/05/13 09:26:34;;;;;;;;;;;;;;;30.75;27.88;99972.84;5050865;28;1197;-52
2022/05/13 09:29:22;;;;;;;;;;;;;;;30.31;28.35;99974.97;5050712;28;953;-55
2022/05/13 09:32:09;;;;;;;;;;;;;;;30.11;28.08;99970.50;5050971;28;907;-53
2022/05/13 09:34:42;;;;;;;;;;;;;;;30.04;27.84;99963.34;5043752;28;1749;-56
2022/05/13 09:37:23;;;;;;;;;;;;;;;29.99;27.69;99955.59;5054371;28;859;-56
2022/05/13 09:40:03;;;;;;;;;;;;;;;29.93;28.01;99972.75;5054275;28;859;-57
2022/05/13 09:42:38;;;;;;;;;;;;;;;29.73;27.73;99967.53;5054155;28;1977;-55
2022/05/13 09:45:31;;;;;;;;;;;;;;;29.68;29.85;99968.31;5054366;28;838;-55
2022/05/13 09:48:06;;;;;;;;;;;;;;;29.80;28.44;99957.63;5051488;28;1172;-55
2022/05/13 09:50:35;;;;;;;;;;;;;;;29.83;28.84;99960.19;5054091;28;830;-55
2022/05/13 09:53:07;;;;;;;;;;;;;;;29.76;29.99;99949.38;5053954;28;922;-56
2022/05/13 09:55:34;;;;;;;;;;;;;;;29.67;30.32;99946.84;5054185;28;938;-55
2022/05/13 09:58:08;;;;;;;;;;;;;;;29.50;28.17;99947.00;5054353;28;795;-55
2022/05/13 10:29:47;;;;;;;;;;;;;;;30.27;26.25;99901.13;5052006;28;1713;-56
2022/05/13 10:32:17;;;;;;;;;;;;;;;30.33;27.59;99901.09;5053345;28;809;-53
2022/05/13 10:34:48;;;;;;;;;;;;;;;30.42;28.13;99892.13;5053495;28;865;-56
2022/05/13 10:37:14;;;;;;;;;;;;;;;30.46;28.12;99891.84;5053185;28;1125;-55
2022/05/13 10:39:46;;;;;;;;;;;;;;;30.37;26.89;99892.22;5053287;28;881;-55
2022/05/13 10:42:16;;;;;;;;;;;;;;;30.54;27.89;99887.06;5035284;28;1992;-55
2022/05/13 10:44:48;;;;;;;;;;;;;;;30.65;27.26;99883.25;5051954;28;954;-55
2022/05/13 10:47:18;;;;;;;;;;;;;;;30.52;27.20;99886.81;5053061;28;881;-56
2022/05/13 10:49:45;;;;;;;;;;;;;;;30.77;28.69;99876.09;5053647;28;826;-56
2022/05/13 10:52:30;;;;;;;;;;;;;;;31.10;27.58;99857.66;5053241;28;806;-56
2022/05/13 10:55:03;;;;;;;;;;;;;;;31.09;27.39;99864.69;5052850;28;834;-56
2022/05/13 10:57:56;;;;;;;;;;;;;;;30.74;27.19;99862.88;5052739;28;915;-56
2022/05/13 11:00:30;;;;;;;;;;;;;;;30.59;26.36;99871.94;5029709;28;1322;-55
2022/05/13 11:02:57;;;;;;;;;;;;;;;30.72;28.21;99860.56;5052680;28;1939;-56
2022/05/13 11:05:29;;;;;;;;;;;;;;;30.81;27.05;99861.47;5052536;28;1065;-56
2022/05/13 11:08:07;;;;;;;;;;;;;;;30.82;27.17;99854.47;5052610;28;968;-56
2022/05/13 11:10:55;;;;;;;;;;;;;;;30.95;25.69;99857.41;5052511;28;883;-56
2022/05/13 11:13:39;;;;;;;;;;;;;;;31.06;26.04;99847.88;5052514;28;821;-56
2022/05/13 11:16:18;;;;;;;;;;;;;;;30.96;25.77;99841.03;5052510;28;807;-56
2022/05/13 11:19:05;;;;;;;;;;;;;;;31.08;24.92;99837.44;5052536;28;798;-56
2022/05/13 11:21:56;;;;;;;;;;;;;;;31.28;26.21;99833.22;5052104;28;1949;-56
2022/05/13 11:27:30;;;;;;;;;;;;;;;31.43;26.15;99832.72;5052327;28;1353;-55
2022/05/13 11:30:02;;;;;;;;;;;;;;;31.31;25.49;99828.50;5052480;28;818;-56
2022/05/13 11:32:51;;;;;;;;;;;;;;;31.47;26.50;99818.88;5052647;28;866;-56
2022/05/13 11:35:18;;;;;;;;;;;;;;;31.51;25.78;99815.66;5052031;28;930;-55
2022/05/13 11:37:46;;;;;;;;;;;;;;;31.46;24.15;99805.13;5052133;28;888;-53
2022/05/13 11:40:21;;;;;;;;;;;;;;;31.46;25.52;99803.03;5052111;28;814;-56
2022/05/13 11:43:18;;;;;;;;;;;;;;;31.64;26.11;99800.63;5051926;28;1965;-54
2022/05/13 11:46:03;;;;;;;;;;;;;;;31.61;26.32;99801.72;5034198;28;768;-55
2022/05/13 11:48:32;;;;;;;;;;;;;;;31.56;25.52;99800.53;5052053;28;806;-56
2022/05/13 11:51:06;;;;;;;;;;;;;;;31.51;25.31;99796.44;5051802;28;854;-56
2022/05/13 11:53:43;;;;;;;;;;;;;;;31.63;25.96;99794.13;5051874;28;814;-56
2022/05/13 11:56:26;;;;;;;;;;;;;;;31.72;26.06;99787.97;5051261;28;1150;-54
2022/05/13 11:58:53;;;;;;;;;;;;;;;31.52;26.21;99782.94;5051700;28;1003;-56
2022/05/13 12:01:38;;;;;;;;;;;;;;;31.64;24.43;99784.22;5051680;28;864;-56
2022/05/13 12:04:14;;;;;;;;;;;;;;;31.73;24.77;99780.19;5051594;28;794;-56
2022/05/13 12:06:47;;;;;;;;;;;;;;;31.87;24.31;99772.34;5051680;28;790;-56
2022/05/13 12:09:14;;;;;;;;;;;;;;;32.03;25.90;99770.44;5052005;28;830;-56
2022/05/13 12:12:04;;;;;;;;;;;;;;;32.37;24.40;99764.75;5052045;28;798;-56
2022/05/13 12:14:34;;;;;;;;;;;;;;;32.73;24.50;99761.25;5051438;28;2175;-56
2022/05/13 12:17:00;;;;;;;;;;;;;;;32.99;24.31;99753.81;5051455;28;898;-55
2022/05/13 12:19:41;;;;;;;;;;;;;;;32.98;23.89;99753.06;5051523;28;846;-56
2022/05/13 12:22:19;;;;;;;;;;;;;;;32.49;24.87;99753.78;5051556;28;2236;-56
2022/05/13 12:25:04;;;;;;;;;;;;;;;32.35;23.54;99753.84;5051293;28;897;-56
2022/05/13 12:27:51;;;;;;;;;;;;;;;32.63;23.72;99743.84;5051518;28;1295;-56
2022/05/13 12:30:33;;;;;;;;;;;;;;;33.04;24.09;99752.94;5020262;28;1241;-56
2022/05/13 12:33:20;;;;;;;;;;;;;;;32.96;25.53;99738.56;5051709;28;1046;-56
2022/05/13 12:38:53;;;;;;;;;;;;;;;32.04;26.12;99741.31;5051412;28;688;-56
2022/05/13 12:41:24;;;;;;;;;;;;;;;31.93;25.59;99732.97;5051231;28;891;-56
2022/05/13 12:44:06;;;;;;;;;;;;;;;31.67;28.02;99733.81;5051750;28;1963;-56
2022/05/13 12:46:53;;;;;;;;;;;;;;;31.61;28.58;99728.22;5051245;28;873;-56
2022/05/13 12:49:45;;;;;;;;;;;;;;;31.60;27.51;99728.78;5051117;28;841;-55
2022/05/13 12:52:28;;;;;;;;;;;;;;;31.44;28.14;99722.88;5032950;28;1031;-56
2022/05/13 12:55:01;;;;;;;;;;;;;;;31.65;27.80;99722.19;5050923;28;1196;-56
2022/05/13 12:57:32;;;;;;;;;;;;;;;31.57;28.11;99712.75;5051352;28;909;-56
2022/05/13 12:59:59;;;;;;;;;;;;;;;31.45;28.52;99710.13;5051329;28;814;-53
2022/05/13 13:02:30;;;;;;;;;;;;;;;31.30;27.85;99701.31;5051095;28;1898;-57
2022/05/13 13:05:01;;;;;;;;;;;;;;;31.07;28.34;99701.03;5033170;28;728;-57
2022/05/13 13:07:29;;;;;;;;;;;;;;;31.02;28.92;99699.78;5052456;28;897;-56
2022/05/13 13:09:57;;;;;;;;;;;;;;;30.97;28.89;99706.38;5054795;28;880;-56
2022/05/13 13:12:57;;;;;;;;;;;;;;;31.01;28.37;99706.06;5054712;28;870;-56
2022/05/13 13:15:37;;;;;;;;;;;;;;;30.88;28.70;99706.84;5021360;28;1134;-56
2022/05/13 13:18:08;;;;;;;;;;;;;;;30.63;28.38;99695.56;5054732;28;814;-56
2022/05/13 13:20:45;;;;;;;;;;;;;;;30.34;27.94;99694.50;5054664;28;842;-57
2022/05/13 13:23:14;;;;;;;;;;;;;;;30.11;28.66;99694.09;5054647;28;1898;-57
2022/05/13 13:25:45;;;;;;;;;;;;;;;30.04;28.74;99689.78;5054398;28;1012;-56
2022/05/13 13:28:20;;;;;;;;;;;;;;;30.25;28.54;99692.03;5054490;28;1236;-56
2022/05/13 13:30:55;;;;;;;;;;;;;;;30.33;29.01;99693.75;5054739;28;869;-56
2022/05/13 13:33:24;;;;;;;;;;;;;;;30.62;28.81;99684.69;5054492;28;834;-56
2022/05/13 13:35:51;;;;;;;;;;;;;;;30.53;28.48;99691.59;5054310;28;912;-56
2022/05/13 13:38:19;;;;;;;;;;;;;;;30.46;28.63;99683.69;5054426;28;920;-56
2022/05/13 13:40:47;;;;;;;;;;;;;;;30.38;28.13;99686.41;5054200;28;894;-56
2022/05/13 13:43:14;;;;;;;;;;;;;;;30.21;27.81;99686.66;5054110;28;1910;-56
2022/05/13 13:45:46;;;;;;;;;;;;;;;30.07;27.40;99687.94;5054273;28;822;-56
2022/05/13 13:48:20;;;;;;;;;;;;;;;29.97;27.56;99681.84;5054190;28;839;-56
2022/05/13 13:50:50;;;;;;;;;;;;;;;29.76;28.09;99690.19;5054348;28;1028;-56
2022/05/13 13:53:18;;;;;;;;;;;;;;;29.67;28.50;99682.00;5053859;28;902;-55
2022/05/13 13:55:44;;;;;;;;;;;;;;;29.72;28.16;99684.03;5053954;28;901;-55
2022/05/13 13:58:30;;;;;;;;;;;;;;;29.39;27.75;99673.84;5053859;28;861;-55
2022/05/13 14:01:06;;;;;;;;;;;;;;;29.22;27.79;99679.75;5053868;28;850;-55
2022/05/13 14:03:32;;;;;;;;;;;;;;;29.05;28.33;99682.78;5053739;28;1945;-55
2022/05/13 14:06:02;;;;;;;;;;;;;;;29.02;27.94;99686.66;5053856;28;794;-55
2022/05/13 14:08:31;;;;;;;;;;;;;;;28.93;27.22;99679.25;5053846;28;814;-56